createdAt,value
2019-04-22T20:29:41.523Z,1009.78
2019-04-22T20:30:46.761Z,1009.80
2019-04-22T20:31:44.168Z,1009.74
2019-04-22T20:32:41.879Z,1009.80
2019-04-22T20:33:50.050Z,1009.81
2019-04-22T20:34:44.829Z,1009.79
2019-04-22T20:35:45.223Z,1009.69
2019-04-22T20:37:03.654Z,1009.77
2019-04-22T20:37:54.823Z,1009.72
2019-04-22T20:38:41.258Z,1009.74
2019-04-22T20:39:49.067Z,1009.71
2019-04-22T20:41:36.561Z,1009.69
2019-04-22T20:42:48.693Z,1009.73
2019-04-22T20:43:46.757Z,1009.81
2019-04-22T20:44:46.163Z,1009.72
2019-04-22T20:45:46.717Z,1009.74
2019-04-22T20:46:40.421Z,1009.75
2019-04-22T20:47:39.676Z,1009.75
2019-04-22T20:48:52.519Z,1009.68
2019-04-22T20:49:41.512Z,1009.68
2019-04-22T20:50:41.739Z,1009.71
2019-04-22T20:51:53.132Z,1009.75
2019-04-22T20:53:46.027Z,1009.62
2019-04-22T20:55:42.041Z,1009.65
2019-04-22T20:56:42.481Z,1009.69
2019-04-22T20:57:49.762Z,1009.76
2019-04-22T20:58:46.531Z,1009.68
2019-04-22T20:59:38.968Z,1009.66
2019-04-22T21:00:37.667Z,1009.70
2019-04-22T21:01:47.655Z,1009.62
2019-04-22T21:02:32.749Z,1009.56
2019-04-22T21:03:33.539Z,1009.66
2019-04-22T21:04:33.529Z,1009.60
2019-04-22T21:05:34.540Z,1009.56
2019-04-22T21:06:45.928Z,1009.64
2019-04-22T21:07:37.517Z,1009.73
2019-04-22T21:08:45.467Z,1009.71
2019-04-22T21:09:47.201Z,1009.67
2019-04-22T21:11:40.826Z,1009.60
2019-04-22T21:12:36.399Z,1009.62
2019-04-22T21:13:41.006Z,1009.62
2019-04-22T21:14:44.228Z,1009.60
2019-04-22T21:15:43.853Z,1009.59
2019-04-22T21:16:48.192Z,1009.61
2019-04-22T21:17:39.027Z,1009.51
2019-04-22T21:18:37.918Z,1009.66
2019-04-22T21:19:47.989Z,1009.56
2019-04-22T21:20:48.065Z,1009.55
2019-04-22T21:21:46.696Z,1009.54
2019-04-22T21:22:46.304Z,1009.62
2019-04-22T21:23:36.672Z,1009.67
2019-04-22T21:24:41.411Z,1009.54
2019-04-22T21:25:34.989Z,1009.58
2019-04-22T21:26:39.996Z,1009.62
2019-04-22T21:27:46.725Z,1009.55
2019-04-22T21:28:45.957Z,1009.54
2019-04-22T21:29:42.368Z,1009.59
2019-04-22T21:30:38.422Z,1009.61
2019-04-22T21:31:47.289Z,1009.59
2019-04-22T21:32:38.523Z,1009.57
2019-04-22T21:33:42.797Z,1009.56
2019-04-22T21:34:48.543Z,1009.56
2019-04-22T21:35:59.158Z,1009.58
2019-04-22T21:36:42.989Z,1009.53
2019-04-22T21:37:43.232Z,1009.61
2019-04-22T21:38:43.680Z,1009.54
2019-04-22T21:39:39.923Z,1009.61
2019-04-22T21:40:39.741Z,1009.59
2019-04-22T21:41:40.287Z,1009.59
2019-04-22T21:42:48.641Z,1009.63
2019-04-22T21:43:46.717Z,1009.58
2019-04-22T21:44:38.378Z,1009.59
2019-04-22T21:45:38.834Z,1009.54
2019-04-22T21:47:55.850Z,1009.55
2019-04-22T21:48:42.274Z,1009.53
2019-04-22T21:49:40.493Z,1009.58
2019-04-22T21:50:48.235Z,1009.60
2019-04-22T21:51:51.111Z,1009.55
2019-04-22T21:52:46.019Z,1009.48
2019-04-22T21:53:50.424Z,1009.54
2019-04-22T21:54:46.644Z,1009.45
2019-04-22T21:55:53.412Z,1009.49
2019-04-22T21:56:54.805Z,1009.50
2019-04-22T21:57:50.973Z,1009.41
2019-04-22T21:58:43.634Z,1009.53
2019-04-22T21:59:38.450Z,1009.40
2019-04-22T22:00:54.069Z,1009.50
2019-04-22T22:01:52.852Z,1009.53
2019-04-22T22:02:47.192Z,1009.46
2019-04-22T22:03:45.283Z,1009.44
2019-04-22T22:04:38.646Z,1009.42
2019-04-22T22:05:34.358Z,1009.46
2019-04-22T22:06:34.753Z,1009.44
2019-04-22T22:07:27.631Z,1009.51
2019-04-22T22:08:47.306Z,1009.41
2019-04-22T22:09:44.115Z,1009.39
2019-04-22T22:10:44.923Z,1009.41
2019-04-22T22:11:39.983Z,1009.41
2019-04-22T22:12:40.795Z,1009.44
2019-04-22T22:13:43.782Z,1009.43
2019-04-22T22:14:42.044Z,1009.45
2019-04-22T22:15:43.478Z,1009.34
2019-04-22T22:16:34.833Z,1009.36
2019-04-22T22:17:39.726Z,1009.32
2019-04-22T22:18:34.967Z,1009.41
2019-04-22T22:19:45.591Z,1009.39
2019-04-22T22:20:52.209Z,1009.33
2019-04-22T22:22:52.647Z,1009.41
2019-04-22T22:23:45.758Z,1009.38
2019-04-22T22:24:43.652Z,1009.31
2019-04-22T22:25:39.547Z,1009.36
2019-04-22T22:26:45.101Z,1009.37
2019-04-22T22:27:40.730Z,1009.42
2019-04-22T22:28:51.710Z,1009.32
2019-04-22T22:30:06.686Z,1009.41
2019-04-22T22:31:05.528Z,1009.34
2019-04-22T22:31:52.946Z,1009.34
2019-04-22T22:33:26.347Z,1009.27
2019-04-22T22:34:28.092Z,1009.40
2019-04-22T22:36:05.923Z,1009.39
2019-04-22T22:37:06.452Z,1009.26
2019-04-22T22:38:45.447Z,1009.29
2019-04-22T22:39:48.149Z,1009.29
2019-04-22T22:40:40.457Z,1009.34
2019-04-22T22:42:22.600Z,1009.23
2019-04-22T22:43:26.671Z,1009.30
2019-04-22T22:45:08.884Z,1009.22
2019-04-22T22:46:10.362Z,1009.26
2019-04-22T22:47:44.537Z,1009.16
2019-04-22T22:48:51.784Z,1009.23
2019-04-22T22:50:34.464Z,1009.23
2019-04-22T22:51:43.053Z,1009.26
2019-04-22T22:52:53.646Z,1009.19
2019-04-22T22:54:37.438Z,1009.16
2019-04-22T22:55:37.442Z,1009.18
2019-04-22T22:56:39.519Z,1009.17
2019-04-22T22:57:33.432Z,1009.09
2019-04-22T22:58:42.555Z,1009.13
2019-04-22T23:00:13.831Z,1009.21
2019-04-22T23:01:10.396Z,1009.18
2019-04-22T23:03:10.795Z,1009.18
2019-04-22T23:03:55.901Z,1009.19
2019-04-22T23:05:49.231Z,1009.13
2019-04-22T23:06:44.397Z,1009.23
2019-04-22T23:07:42.490Z,1009.12
2019-04-22T23:08:38.795Z,1009.16
2019-04-22T23:09:38.467Z,1009.11
2019-04-22T23:10:52.375Z,1009.10
2019-04-22T23:12:01.782Z,1009.10
2019-04-22T23:12:49.962Z,1009.08
2019-04-22T23:13:56.889Z,1009.09
2019-04-22T23:14:37.098Z,1009.13
2019-04-22T23:15:34.293Z,1009.08
2019-04-22T23:16:31.444Z,1009.11
2019-04-22T23:17:25.468Z,1009.10
2019-04-22T23:18:19.815Z,1009.17
2019-04-22T23:19:17.863Z,1009.06
2019-04-22T23:20:25.010Z,1009.12
2019-04-22T23:21:28.551Z,1009.05
2019-04-22T23:22:30.241Z,1008.98
2019-04-22T23:23:40.884Z,1009.01
2019-04-22T23:24:33.176Z,1009.03
2019-04-22T23:25:49.944Z,1009.06
2019-04-22T23:26:40.418Z,1009.00
2019-04-22T23:27:34.596Z,1008.95
2019-04-22T23:28:30.083Z,1009.01
2019-04-22T23:29:32.421Z,1009.00
2019-04-22T23:30:26.858Z,1009.01
2019-04-22T23:31:29.493Z,1009.04
2019-04-22T23:32:29.681Z,1009.02
2019-04-22T23:33:32.421Z,1008.97
2019-04-22T23:34:32.911Z,1008.96
2019-04-22T23:35:33.601Z,1008.94
2019-04-22T23:36:26.333Z,1008.95
2019-04-22T23:37:27.728Z,1008.91
2019-04-22T23:38:35.744Z,1008.90
2019-04-22T23:39:41.578Z,1008.93
2019-04-22T23:40:39.673Z,1008.85
2019-04-22T23:42:32.681Z,1008.93
2019-04-22T23:43:44.860Z,1008.95
2019-04-22T23:44:36.718Z,1008.94
2019-04-22T23:45:33.278Z,1008.90
2019-04-22T23:46:28.335Z,1008.91
2019-04-22T23:47:29.332Z,1008.84
2019-04-22T23:48:29.528Z,1008.81
2019-04-22T23:49:29.685Z,1008.86
2019-04-22T23:50:41.466Z,1008.83
2019-04-22T23:51:29.704Z,1008.91
2019-04-22T23:52:35.977Z,1008.80
2019-04-22T23:53:57.897Z,1008.91
2019-04-22T23:54:40.608Z,1008.77
2019-04-22T23:55:36.988Z,1008.86
2019-04-22T23:56:33.613Z,1008.80
2019-04-22T23:57:53.262Z,1008.86
2019-04-22T23:58:53.062Z,1008.90
2019-04-22T23:59:41.457Z,1008.77
